Time;durP1;ratioP1;P1;durP2;ratioP2;P2;SDS_P1;SDS_P2;PMS_P1;PMS_P2;Temp;Humidity;BMP_temperature;BMP_pressure;BME280_temperature;BME280_humidity;BME280_pressure;Samples;Min_cycle;Max_cycle;Signal;HPM_P1;HPM_P2
2022/12/16 00:01:24;;;;;;;47.25;21.10;;;;;;;;;;4973266;28;20375;-64
2022/12/16 00:03:52;;;;;;;39.42;17.35;;;;;;;;;;4973445;28;20121;-64
2022/12/16 00:06:18;;;;;;;46.15;22.77;;;;;;;;;;4973193;28;20062;-65
2022/12/16 00:08:43;;;;;;;57.47;20.58;;;;;;;;;;4973313;28;20406;-64
2022/12/16 00:11:09;;;;;;;45.80;20.45;;;;;;;;;;4972826;28;20037;-64
2022/12/16 00:13:39;;;;;;;58.92;25.13;;;;;;;;;;4973295;28;20045;-64
2022/12/16 00:16:07;;;;;;;47.72;21.27;;;;;;;;;;4973187;28;20031;-64
2022/12/16 00:18:33;;;;;;;36.28;16.08;;;;;;;;;;4973013;28;20114;-64
2022/12/16 00:20:59;;;;;;;47.08;20.05;;;;;;;;;;4972946;28;20105;-64
2022/12/16 00:23:24;;;;;;;49.88;22.70;;;;;;;;;;4972907;28;20053;-64
2022/12/16 00:25:50;;;;;;;59.45;22.35;;;;;;;;;;4971661;28;20039;-65
2022/12/16 00:28:16;;;;;;;53.45;22.40;;;;;;;;;;4972978;28;20045;-64
2022/12/16 00:30:43;;;;;;;50.35;22.23;;;;;;;;;;4973142;28;20113;-65
2022/12/16 00:33:09;;;;;;;49.88;20.92;;;;;;;;;;4972812;28;20053;-64
2022/12/16 00:35:34;;;;;;;45.13;19.08;;;;;;;;;;4983411;28;20015;-64
2022/12/16 00:38:00;;;;;;;48.35;21.42;;;;;;;;;;4992436;28;20388;-66
2022/12/16 00:40:26;;;;;;;50.83;23.30;;;;;;;;;;4992140;28;20086;-66
2022/12/16 00:42:51;;;;;;;42.35;20.58;;;;;;;;;;4991025;28;20034;-67
2022/12/16 00:45:17;;;;;;;49.72;20.85;;;;;;;;;;4992329;28;20110;-67
2022/12/16 00:47:43;;;;;;;48.03;20.70;;;;;;;;;;4992306;28;20033;-67
2022/12/16 00:50:08;;;;;;;37.20;15.20;;;;;;;;;;4994334;28;20038;-67
2022/12/16 00:52:34;;;;;;;48.00;20.80;;;;;;;;;;4995896;28;20446;-67
2022/12/16 00:54:59;;;;;;;52.80;22.83;;;;;;;;;;4995626;28;20026;-64
2022/12/16 00:57:25;;;;;;;51.38;21.27;;;;;;;;;;4995992;28;20069;-64
2022/12/16 00:59:50;;;;;;;49.78;22.50;;;;;;;;;;4995719;28;20072;-64
2022/12/16 01:02:16;;;;;;;39.63;18.90;;;;;;;;;;4995572;28;20034;-64
2022/12/16 01:04:42;;;;;;;25.05;13.75;;;;;;;;;;4995775;28;20030;-64
2022/12/16 01:07:08;;;;;;;36.15;16.15;;;;;;;;;;4994426;28;20033;-64
2022/12/16 01:09:34;;;;;;;48.05;21.30;;;;;;;;;;4995507;28;20062;-64
2022/12/16 01:11:59;;;;;;;49.83;22.17;;;;;;;;;;4995633;28;20104;-65
2022/12/16 01:14:24;;;;;;;56.00;21.33;;;;;;;;;;4995436;28;20022;-65
2022/12/16 01:16:50;;;;;;;38.58;16.80;;;;;;;;;;4995700;28;20026;-66
2022/12/16 01:19:15;;;;;;;47.17;22.27;;;;;;;;;;4995660;28;20465;-67
2022/12/16 01:24:16;;;;;;;50.60;21.67;;;;;;;;;;5209424;22;20479;-66
2022/12/16 01:26:42;;;;;;;60.97;22.60;;;;;;;;;;4992102;28;20030;-66
2022/12/16 01:29:07;;;;;;;30.30;14.00;;;;;;;;;;4993658;28;20027;-64
2022/12/16 01:31:33;;;;;;;46.55;20.58;;;;;;;;;;4993782;28;20041;-64
2022/12/16 01:33:58;;;;;;;48.10;20.27;;;;;;;;;;4993812;28;20054;-64
2022/12/16 01:36:25;;;;;;;45.40;21.55;;;;;;;;;;4993848;28;20019;-64
2022/12/16 01:38:50;;;;;;;48.45;22.70;;;;;;;;;;4993506;28;20084;-65
2022/12/16 01:41:17;;;;;;;39.95;20.10;;;;;;;;;;4990816;28;20050;-64
2022/12/16 01:43:44;;;;;;;50.72;22.38;;;;;;;;;;4990931;28;20034;-63
2022/12/16 01:46:12;;;;;;;46.42;21.73;;;;;;;;;;4993434;28;20022;-63
2022/12/16 01:48:58;;;;;;;52.10;23.60;;;;;;;;;;4993475;28;20073;-63
2022/12/16 01:51:29;;;;;;;36.65;16.48;;;;;;;;;;4990761;28;20069;-64
2022/12/16 01:54:09;;;;;;;53.22;23.15;;;;;;;;;;4993671;28;20030;-66
2022/12/16 01:56:39;;;;;;;52.78;21.45;;;;;;;;;;4993857;28;20038;-64
2022/12/16 01:59:05;;;;;;;45.25;19.40;;;;;;;;;;4994071;28;20038;-64
2022/12/16 02:01:31;;;;;;;57.10;23.10;;;;;;;;;;4993473;28;20036;-64
2022/12/16 02:04:00;;;;;;;28.83;15.20;;;;;;;;;;4994310;28;20059;-64
2022/12/16 02:06:27;;;;;;;13.88;7.97;;;;;;;;;;4994058;28;20535;-64
2022/12/16 02:08:55;;;;;;;51.65;22.60;;;;;;;;;;4994314;28;20085;-64
2022/12/16 02:11:53;;;;;;;50.47;23.02;;;;;;;;;;4994387;28;20041;-65
2022/12/16 02:14:37;;;;;;;46.83;20.55;;;;;;;;;;4994213;28;20026;-64
2022/12/16 02:17:43;;;;;;;49.05;20.55;;;;;;;;;;4994112;28;20054;-65
2022/12/16 02:20:54;;;;;;;33.92;16.38;;;;;;;;;;4988599;28;20035;-65
2022/12/16 02:23:53;;;;;;;51.67;21.77;;;;;;;;;;4995533;28;20465;-65
2022/12/16 02:26:52;;;;;;;26.55;11.23;;;;;;;;;;5013120;28;20045;-65
2022/12/16 02:29:26;;;;;;;42.45;19.67;;;;;;;;;;5012692;28;20041;-65
2022/12/16 02:32:05;;;;;;;50.50;21.95;;;;;;;;;;5012881;28;20029;-65
2022/12/16 02:35:28;;;;;;;48.70;21.60;;;;;;;;;;5013071;28;20041;-64
2022/12/16 02:38:07;;;;;;;47.83;21.13;;;;;;;;;;4952518;29;20040;-64
2022/12/16 02:40:44;;;;;;;48.17;21.20;;;;;;;;;;4952718;28;20047;-64
2022/12/16 02:43:39;;;;;;;48.30;21.75;;;;;;;;;;4952458;29;20123;-65
2022/12/16 02:46:06;;;;;;;52.33;21.48;;;;;;;;;;4931753;29;20075;-66
2022/12/16 02:48:32;;;;;;;53.40;21.92;;;;;;;;;;4951957;28;20047;-65
2022/12/16 02:50:57;;;;;;;52.58;22.98;;;;;;;;;;4951719;29;20032;-66
2022/12/16 02:53:23;;;;;;;51.85;22.77;;;;;;;;;;4952140;28;20545;-64
2022/12/16 02:55:51;;;;;;;49.70;22.33;;;;;;;;;;4952471;29;20050;-67
2022/12/16 02:58:26;;;;;;;52.45;22.08;;;;;;;;;;4943917;28;20435;-66
2022/12/16 03:01:27;;;;;;;53.28;21.45;;;;;;;;;;4933293;29;20044;-66
2022/12/16 03:04:33;;;;;;;49.75;22.58;;;;;;;;;;4876484;29;20076;-67
2022/12/16 03:07:00;;;;;;;50.42;23.60;;;;;;;;;;4876272;29;20128;-66
2022/12/16 03:09:30;;;;;;;58.53;23.13;;;;;;;;;;4875949;29;20037;-68
2022/12/16 03:11:57;;;;;;;53.70;22.48;;;;;;;;;;4876591;29;20117;-66
2022/12/16 03:14:27;;;;;;;51.65;23.15;;;;;;;;;;4909767;29;20526;-66
2022/12/16 03:16:53;;;;;;;54.75;22.85;;;;;;;;;;4932615;29;20071;-66
2022/12/16 03:19:20;;;;;;;52.13;23.33;;;;;;;;;;4932040;29;20031;-64
2022/12/16 03:22:01;;;;;;;60.08;26.65;;;;;;;;;;4932383;29;20107;-66
2022/12/16 03:24:28;;;;;;;50.83;23.52;;;;;;;;;;4932914;29;20083;-65
2022/12/16 03:27:12;;;;;;;49.53;24.80;;;;;;;;;;4952076;29;20139;-64
2022/12/16 03:30:02;;;;;;;48.28;23.15;;;;;;;;;;4951909;29;20038;-65
2022/12/16 03:32:40;;;;;;;52.58;23.45;;;;;;;;;;4951942;29;20109;-66
2022/12/16 03:35:24;;;;;;;55.80;24.05;;;;;;;;;;4951641;29;20170;-65
2022/12/16 03:37:54;;;;;;;52.60;22.73;;;;;;;;;;4951887;29;20098;-65
2022/12/16 03:40:20;;;;;;;54.75;22.98;;;;;;;;;;5003638;28;20034;-65
2022/12/16 03:42:47;;;;;;;50.58;22.92;;;;;;;;;;5011810;28;20145;-65
2022/12/16 03:45:19;;;;;;;58.28;24.65;;;;;;;;;;5011756;28;20037;-64
2022/12/16 03:47:52;;;;;;;58.17;25.98;;;;;;;;;;5011368;28;20036;-65
2022/12/16 03:50:25;;;;;;;62.83;25.70;;;;;;;;;;5011505;28;20040;-66
2022/12/16 03:52:50;;;;;;;59.53;23.70;;;;;;;;;;5010832;28;20484;-64
2022/12/16 03:55:16;;;;;;;57.33;24.13;;;;;;;;;;5011919;28;20030;-64
2022/12/16 03:57:41;;;;;;;65.05;25.58;;;;;;;;;;5012133;28;20022;-63
2022/12/16 04:00:08;;;;;;;46.35;20.48;;;;;;;;;;5011981;28;20476;-64
2022/12/16 04:02:33;;;;;;;58.50;25.45;;;;;;;;;;5010371;28;20030;-64
2022/12/16 04:04:59;;;;;;;66.82;26.20;;;;;;;;;;5012081;28;20500;-65
2022/12/16 04:07:24;;;;;;;62.22;26.63;;;;;;;;;;5011843;28;20022;-64
2022/12/16 04:09:51;;;;;;;61.10;24.63;;;;;;;;;;5011925;28;20034;-65
2022/12/16 04:26:04;;;;;;;64.32;26.25;;;;;;;;;;5015591;28;20056;-65
2022/12/16 04:28:29;;;;;;;64.75;26.92;;;;;;;;;;5015792;28;20034;-64
2022/12/16 04:30:55;;;;;;;65.63;25.85;;;;;;;;;;5015753;28;20472;-64
